Diogo Carvalho

Chefscout - Nacional
19 Aug 2027
Donnerstag
Verarbeitung

Persönlichkeit

Anpassungsfähigkeit (15) Ehrgeiz (8) Kontroverse (1) Loyalität (10) Druck (16) Professionalität (14) Fairness (7) Temperament (5)

Profil

Trainerstil Demokratisch
Lizenz Kontinentale A
Entschlossenheit 4
Menschenführung 10
Motivation 7
Disziplin 4
Arbeitszufriedenheit
100%
Ermüdung
0%
Rolle Chefscout
Gehalt 59.6K p/W
Vertrag 14.03.2030

Leistung

Verhalten Gut
Trainingseffektivität
43%
Spielerentwicklung
30%
Verletzungsprävention
60%
Taktische Umsetzung
50%

Letzte Ereignisse

Nahm an einer Scouting-Besprechung teil jetzt
Empfahl ein Transferziel jetzt
Nahm an einer Scouting-Besprechung teil jetzt
Nahm an einer Scouting-Besprechung teil jetzt
Empfahl ein Transferziel jetzt
Empfahl ein Transferziel jetzt
Empfahl ein Transferziel jetzt
Empfahl ein Transferziel jetzt

Aktuell beobachtet

158
Spieler Verein Status Fähigkeit Vertrauen Beobachtet Zuletzt beobachtet Letzte Stimme
David Costa Torreense Aktiv 106 / 109 69% 1 16.08.2027 Befürworten
João Teixeira Porto Aktiv 114 / 116 40% 1 05.07.2027 -
Leandro Martins Benfica Aktiv 105 / 106 40% 1 05.07.2027 -
Gonçalo Sousa Porto Aktiv 125 / 128 69% 1 28.06.2027 Befürworten
Rafael Brito Lusitânia Lourosa Aktiv 114 / 118 69% 1 21.06.2027 Befürworten
Dion Beljo Standard Liege Verhandlung 131 / 132 66% 1 01.06.2027 Befürworten
Ernie Weaver AFC Wimbledon Aktiv 115 / 110 40% 1 31.05.2027 Mehr Infos nötig
Finn Jeltsch VfB Stuttgart Aktiv 134 / 135 40% 1 31.05.2027 -
Jofre Torrents Ajax Aktiv 126 / 132 40% 1 31.05.2027 -
Francisco Meixedo Feirense Aktiv 115 / 118 40% 2 25.01.2027 Mehr Infos nötig
Lévi Ntumba Slavia Sofia Aktiv 115 / 92 40% 1 25.01.2027 -
Pol Tristán Barnsley Aktiv 111 / 118 40% 1 25.01.2027 -
Kostantis Tzolakis Hull City Aktiv 146 / 134 40% 4 01.01.2027 -
Patrick Sequeira Casa Pia Aktiv 122 / 118 40% 2 01.01.2027 -
Andreas Trimmel Red Bull Salzburg Aktiv 131 / 131 60% 1 01.01.2027 Befürworten
Amar Memić Casa Pia Verhandlung 127 / 128 62% 1 01.01.2027 Befürworten
Jefry Zapata Danubio Verhandlung 118 / 118 67% 1 01.01.2027 Befürworten
Nathan Bishop AFC Wimbledon Aktiv 105 / 104 40% 1 01.01.2027 -
Duk Atlas Aktiv 123 / 116 40% 3 30.12.2026 -
Ozziel Herrera Tigres Aktiv 129 / 123 40% 5 29.12.2026 -
Callum O'Hare Sheffield United Aktiv 134 / 123 40% 2 29.12.2026 -
Mourad Tijuana Aktiv 113 / 108 40% 2 28.12.2026 -
Mandla Mahlangu Ajax Cape Town Aktiv 104 / 114 40% 2 28.12.2026 -
Thiago Brentford Aktiv 149 / 154 40% 6 27.12.2026 -
Zé Leite Leixões Aktiv 123 / 115 40% 5 27.12.2026 -
Toni Fruk KV Mechelen Aktiv 129 / 126 40% 1 25.12.2026 -
Richard Koné Queens Park Rangers Aktiv 116 / 116 40% 1 25.12.2026 -
Tshepang Moremi Orlando Pirates Aktiv 112 / 126 40% 1 25.12.2026 -
Themba Ngcobo SuperSport United Aktiv 119 / 116 40% 2 23.12.2026 -
Elijah Adebayo Luton Town Aktiv 126 / 119 40% 3 23.12.2026 -
Morgan Whittaker Middlesbrough Aktiv 127 / 137 40% 1 23.12.2026 -
Gonzalo Fulham Aktiv 142 / 153 40% 3 21.12.2026 -
Jalen Blesa Rio Ave Aktiv 120 / 122 40% 2 20.12.2026 -
Josh Koroma Leyton Orient Aktiv 103 / 101 40% 1 20.12.2026 -
Kévin Zohi Torreense Aktiv 122 / 103 40% 1 19.12.2026 -
Jhojan Julio Queretaro Aktiv 124 / 126 40% 4 18.12.2026 -
André Silva Tondela Aktiv 137 / 121 40% 4 17.12.2026 -
John Kennedy Fluminense Aktiv 139 / 130 40% 1 17.12.2026 -
Fotis Ioannidis Rio Ave Aktiv 145 / 143 40% 6 16.12.2026 -
Vinícius Lopes Santa Clara Aktiv 126 / 119 40% 3 16.12.2026 -
Cezary Miszta Rio Ave Aktiv 127 / 124 40% 2 16.12.2026 -
Everton Bala Levski Aktiv 133 / 115 40% 2 16.12.2026 -
Robin Roefs Sunderland Aktiv 151 / 151 40% 1 16.12.2026 -
Yousef Salech Cardiff City Aktiv 122 / 124 40% 2 14.12.2026 -
Zian Flemming Ipswich Town Aktiv 124 / 137 40% 2 12.12.2026 -
Ianis Stoica Estrela da Amadora Aktiv 119 / 115 40% 1 12.12.2026 -
Tyler Adams Bournemouth Aktiv 149 / 154 40% 1 12.12.2026 -
Stephen Humphrys Bradford City Aktiv 103 / 109 40% 2 09.12.2026 -
Ryan Sessegnon Fulham Aktiv 153 / 153 40% 1 09.12.2026 -
Mees Rijks Bristol Rovers Aktiv 114 / 111 40% 1 07.12.2026 -
Marezi Portsmouth Aktiv 119 / 128 40% 3 06.12.2026 -
Ammar Ramadan DAC Dunajska Streda Aktiv 130 / 111 40% 1 06.12.2026 -
Luis Vázquez Birmingham Aktiv 136 / 130 40% 2 03.12.2026 -
Armando Broja Burnley Aktiv 130 / 128 40% 2 29.11.2026 -
Kévin Denkey FC Cincinnati Aktiv 121 / 116 40% 5 28.11.2026 -
Joshua Zirkzee Manchester United Aktiv 151 / 147 40% 1 27.11.2026 -
Lorenzo Colombo Genoa Aktiv 137 / 133 40% 1 26.11.2026 -
Mohamed-Ali Cho Hull City Aktiv 139 / 131 40% 1 25.11.2026 -
Wilson Isidor Sunderland Aktiv 142 / 143 40% 2 24.11.2026 -
Lazar Carević Famalicao Aktiv 138 / 137 40% 5 23.11.2026 -
Enzo Le Fée Sunderland Aktiv 145 / 134 40% 1 23.11.2026 -
Matt O'Riley Brighton Aktiv 145 / 138 40% 1 23.11.2026 -
Benjamin Kanurić SV Ried Aktiv 114 / 116 40% 1 23.11.2026 -
André Clovis Leiria Aktiv 113 / 123 40% 1 23.11.2026 -
Luka Gavran Toronto FC Aktiv 101 / 121 40% 1 23.11.2026 -
Vitor Hugo Lusitânia Lourosa Aktiv 107 / 97 40% 1 21.11.2026 -
Adnan Courtois KV Oostende Aktiv 141 / 140 40% 1 18.11.2026 -
Gustavo Silva Vitoria Guimaraes Aktiv 123 / 114 40% 2 17.11.2026 -
Will Lankshear Middlesbrough Aktiv 129 / 120 40% 2 17.11.2026 -
Rafael Navarro St. Louis CITY SC Aktiv 137 / 138 40% 1 17.11.2026 -
Marcus Edwards Burnley Aktiv 142 / 131 40% 1 17.11.2026 -
Florentino Luís Ipswich Town Aktiv 145 / 147 40% 1 17.11.2026 -
Figueiredo Alverca Aktiv 131 / 131 40% 1 15.11.2026 -
Roberto Fernández Braga Aktiv 141 / 148 40% 9 14.11.2026 Beobachten
Georginio Rutter Brighton Aktiv 146 / 150 40% 3 14.11.2026 -
Tommy Conway Middlesbrough Aktiv 129 / 135 40% 2 14.11.2026 -
Carlos Vicente Birmingham Aktiv 145 / 144 40% 2 13.11.2026 -
Santi García Gil Vicente Aktiv 136 / 124 40% 2 13.11.2026 -
Lucas Cañizares Tondela Aktiv 100 / 118 40% 1 12.11.2026 -
Lukas Jensen Millwall Aktiv 120 / 115 40% 1 12.11.2026 -
Gabriel Jesus Barcelona Aktiv 163 / 147 40% 3 11.11.2026 -
Razvan Balasa Crvena Zvezda Aktiv 144 / 151 40% 1 11.11.2026 -
Víctor Gómez Braga Aktiv 147 / 135 40% 1 11.11.2026 -
Kevin Fulham Aktiv 147 / 145 40% 1 10.11.2026 -
Soma Anzai FC Tokyo Aktiv 113 / 131 40% 2 08.11.2026 -
Mikkel Damsgaard Brentford Aktiv 142 / 149 40% 1 07.11.2026 -
Derensili Sanches Fernandes Huddersfield Town Aktiv 127 / 114 40% 1 07.11.2026 -
Juninho Pumas UNAM Aktiv 118 / 131 40% 4 06.11.2026 -
Marquinhos Spartak Moscow Aktiv 137 / 121 40% 2 05.11.2026 -
Tomás O'Connor Gimnasia y Esgrima Aktiv 118 / 123 40% 1 05.11.2026 -
Joaquín Gho Argentinos Juniors Aktiv 129 / 126 40% 1 04.11.2026 -
Jason Knight Bristol City Aktiv 132 / 122 40% 1 04.11.2026 -
Lee Hyun-Ju Arouca Aktiv 119 / 119 40% 1 03.11.2026 -
Noni Madueke Arsenal Aktiv 149 / 158 40% 1 03.11.2026 -
Brian Gutiérrez Guadalajara Aktiv 116 / 120 40% 1 01.11.2026 -
Naïs Djouahra Arouca Aktiv 130 / 125 40% 1 01.11.2026 -
Lassina Traoré Shakhtar Aktiv 120 / 129 40% 1 01.11.2026 -
Breel Embolo Atlanta United FC Aktiv 143 / 141 40% 2 31.10.2026 -
Federico Chiesa Liverpool Aktiv 148 / 158 40% 2 30.10.2026 -
Fran Navarro Braga Aktiv 126 / 123 40% 1 28.10.2026 -
Ramiro Ruiz Rodríguez Atlético Tucumán Aktiv 124 / 124 40% 2 27.10.2026 -
Adriano Bertaccini Anderlecht Aktiv 125 / 126 40% 1 27.10.2026 -
Pau Víctor AVS Aktiv 129 / 130 40% 3 26.10.2026 -
Dominic Calvert-Lewin Leeds United Aktiv 141 / 132 40% 1 26.10.2026 -
Cody Gakpo Liverpool Aktiv 151 / 164 40% 1 25.10.2026 -
Jhon Jhon Zenit Aktiv 126 / 116 40% 1 25.10.2026 -
Mario Stroeykens Anderlecht Aktiv 121 / 134 40% 1 25.10.2026 -
Manuel Ospina Cortulua Aktiv 118 / 129 40% 1 23.10.2026 -
Lucas Di Yorio Santos Laguna Aktiv 123 / 125 40% 1 23.10.2026 -
Dom Ballard Leyton Orient Aktiv 110 / 120 40% 1 23.10.2026 -
Ezequiel Bullaude Santos Laguna Aktiv 114 / 123 40% 1 23.10.2026 -
Lorent Tolaj Plymouth Argyle Aktiv 128 / 126 40% 1 20.10.2026 -
George Hirst Stoke City Aktiv 140 / 140 40% 2 19.10.2026 -
Diego Rossi Monterrey Aktiv 133 / 120 40% 1 18.10.2026 -
Samuel Essende Young Boys Aktiv 122 / 127 40% 1 16.10.2026 -
Tomás Chancalay Minnesota United FC Aktiv 137 / 124 40% 3 15.10.2026 -
Rodrigo Bogarín Barracas Central Aktiv 130 / 120 40% 1 15.10.2026 -
Dávid Strelec Middlesbrough Aktiv 130 / 143 40% 2 14.10.2026 -
Evidence Makgopa Orlando Pirates Aktiv 101 / 111 40% 1 14.10.2026 -
Romelu Castagne KV Oostende Aktiv 134 / 128 40% 2 13.10.2026 -
Dango Ouattara Brentford Aktiv 138 / 145 40% 2 12.10.2026 -
Luis Ingolotti Atlético Tucumán Aktiv 126 / 122 40% 2 10.10.2026 -
George Wickens Lincoln City Aktiv 107 / 110 40% 1 10.10.2026 -
Matheus Mendes Alverca Aktiv 124 / 125 40% 2 06.10.2026 -
Michael Cooper Sheffield United Aktiv 135 / 129 40% 2 06.10.2026 -
Alexis Cuello San Lorenzo Aktiv 114 / 117 40% 1 04.10.2026 -
Alfonso Trezza Arouca Aktiv 120 / 113 40% 1 04.10.2026 -
Misael Sosa Godoy Cruz Aktiv 109 / 122 40% 1 03.10.2026 -
Wessam Abou Ali Columbus Crew Aktiv 128 / 142 40% 1 30.09.2026 -
Nicolás Sumavil Platense Aktiv 106 / 124 40% 2 28.09.2026 -
Yanis Begraoui Estoril Praia Aktiv 132 / 133 40% 1 28.09.2026 -
Luiz Júnior TSG Hoffenheim Aktiv 144 / 134 40% 1 28.09.2026 -
Kazuki Fujita Avispa Fukuoka Aktiv 125 / 123 40% 1 25.09.2026 -
Antonio Gomis Vizela Aktiv 114 / 113 40% 1 25.09.2026 -
Luca Martínez Dupuy Godoy Cruz Aktiv 128 / 134 40% 1 23.09.2026 -
David Miculescu FCSB Aktiv 110 / 115 40% 1 23.09.2026 -
Dejan Joveljić Seattle Sounders Aktiv 138 / 126 40% 1 22.09.2026 -
Ignacio Ramírez Newell's Old Boys Aktiv 127 / 113 40% 1 22.09.2026 -
Efraín Álvarez Guadalajara Aktiv 119 / 140 40% 1 20.09.2026 -
Bénie Traoré New York City Aktiv 135 / 116 40% 1 20.09.2026 -
Lewis Morgan SuperSport United Aktiv 116 / 140 40% 1 20.09.2026 -
Tomás Ahumada Audax Italiano Aktiv 117 / 99 40% 1 20.09.2026 -
Luciano Gondou CSKA Moscow Aktiv 120 / 135 40% 1 18.09.2026 -
August Priske Birmingham Aktiv 128 / 126 40% 1 17.09.2026 -
Manuel Baldé Asante Kotoko Aktiv 90 / 89 40% 1 13.09.2026 -
Juan Cruz de los Santos Nacional Aktiv 124 / 114 40% 1 11.09.2026 -
Matko Miljevic Racing Club Aktiv 131 / 124 40% 1 11.09.2026 -
Márcio Mendes Pandurii Aktiv 127 / 121 40% 1 11.09.2026 -
Jaminton Campaz Rosario Central Aktiv 121 / 110 40% 1 10.09.2026 -
Victor Froholdt Porto Aktiv 143 / 161 40% 1 10.09.2026 -
Theo Corbeanu Toronto FC Aktiv 129 / 107 40% 1 08.09.2026 -
Nahuel Suárez La Luz Aktiv 109 / 94 40% 1 08.09.2026 -
Lukas Gütlbauer Wolfsberger AC Aktiv 110 / 123 40% 1 08.09.2026 -
Thauan Lara Portimonense Aktiv 108 / 116 65% 1 03.08.2026 Befürworten
Nobel Mendy Hull City Aktiv 121 / 139 40% 1 02.08.2026 -
Demir Ege Tıknaz Braga Aktiv 117 / 137 40% 1 02.08.2026 -
Daniel Sappa San Miguel Aktiv 124 / 103 40% 1 02.08.2026 -
Julen Agirrezabala Racing Santander Aktiv 145 / 130 40% 1 02.08.2026 -